createdAt,value
2018-12-08T00:02:20.555Z,2.80
2018-12-08T00:04:48.056Z,3.07
2018-12-08T00:07:15.557Z,3.10
2018-12-08T00:09:43.063Z,2.70
2018-12-08T00:12:10.632Z,2.67
2018-12-08T00:14:38.123Z,2.83
2018-12-08T00:17:05.935Z,2.37
2018-12-08T00:19:33.457Z,2.50
2018-12-08T00:22:00.945Z,2.60
2018-12-08T00:24:28.431Z,3.10
2018-12-08T00:26:55.940Z,3.13
2018-12-08T00:29:23.439Z,2.90
2018-12-08T00:31:50.912Z,2.40
2018-12-08T00:34:18.471Z,2.63
2018-12-08T00:36:46.772Z,2.87
2018-12-08T00:39:15.075Z,3.03
2018-12-08T00:41:42.686Z,2.93
2018-12-08T00:44:10.227Z,2.70
2018-12-08T00:46:37.710Z,3.17
2018-12-08T00:49:05.228Z,2.90
2018-12-08T00:51:32.773Z,3.30
2018-12-08T00:54:02.235Z,3.13
2018-12-08T00:56:29.775Z,2.93
2018-12-08T00:58:57.355Z,2.80
2018-12-08T01:01:24.867Z,2.40
2018-12-08T01:03:52.380Z,2.87
2018-12-08T01:06:20.122Z,2.87
2018-12-08T01:08:47.601Z,3.30
2018-12-08T01:11:15.163Z,2.80
2018-12-08T01:13:42.756Z,3.50
2018-12-08T01:16:10.233Z,3.10
2018-12-08T01:18:37.756Z,2.50
2018-12-08T01:21:05.247Z,3.43
2018-12-08T01:23:32.790Z,3.33
2018-12-08T01:26:00.320Z,3.00
2018-12-08T01:28:27.838Z,2.33
2018-12-08T01:30:55.384Z,3.10
2018-12-08T01:33:22.983Z,3.43
2018-12-08T01:35:50.528Z,3.37
2018-12-08T01:38:18.000Z,2.97
2018-12-08T01:40:45.522Z,2.60
2018-12-08T01:43:13.016Z,3.17
2018-12-08T01:45:40.495Z,3.23
2018-12-08T01:48:08.717Z,3.30
2018-12-08T01:50:36.277Z,2.63
2018-12-08T01:53:03.787Z,2.73
2018-12-08T01:55:32.372Z,3.40
2018-12-08T01:57:59.878Z,3.30
2018-12-08T02:00:27.355Z,3.50
2018-12-08T02:02:54.876Z,2.97
2018-12-08T02:05:22.431Z,2.33
2018-12-08T02:07:49.964Z,3.20
2018-12-08T02:10:17.469Z,2.93
2018-12-08T02:12:44.952Z,3.00
2018-12-08T02:15:12.564Z,3.47
2018-12-08T02:17:40.078Z,2.07
2018-12-08T02:20:07.676Z,3.20
2018-12-08T02:22:35.824Z,2.87
2018-12-08T02:25:04.609Z,2.83
2018-12-08T02:27:32.088Z,2.93
2018-12-08T02:29:59.575Z,3.47
2018-12-08T02:32:27.073Z,3.07
2018-12-08T02:34:55.051Z,3.00
2018-12-08T02:37:22.600Z,2.90
2018-12-08T02:39:50.927Z,3.07
2018-12-08T02:42:18.945Z,2.57
2018-12-08T02:44:46.418Z,3.33
2018-12-08T02:47:13.986Z,4.07
2018-12-08T02:49:42.048Z,3.27
2018-12-08T02:52:09.536Z,3.10
2018-12-08T02:54:37.049Z,2.87
2018-12-08T02:57:04.595Z,2.77
2018-12-08T02:59:32.115Z,3.03
2018-12-08T03:01:59.639Z,3.50
2018-12-08T03:04:27.157Z,3.67
2018-12-08T03:06:54.732Z,2.93
2018-12-08T03:09:22.282Z,2.77
2018-12-08T03:11:49.761Z,3.03
2018-12-08T03:14:17.240Z,2.70
2018-12-08T03:16:44.899Z,3.33
2018-12-08T03:19:12.468Z,3.10
2018-12-08T03:21:40.022Z,2.77
2018-12-08T03:24:07.756Z,3.37
2018-12-08T03:26:35.283Z,2.83
2018-12-08T03:29:02.775Z,3.07
2018-12-08T03:31:30.273Z,3.10
2018-12-08T03:33:57.768Z,3.30
2018-12-08T03:36:25.565Z,3.43
2018-12-08T03:38:53.084Z,3.40
2018-12-08T03:41:20.607Z,3.17
2018-12-08T03:43:48.097Z,3.00
2018-12-08T03:46:15.662Z,3.37
2018-12-08T03:48:43.146Z,3.17
2018-12-08T03:51:10.657Z,3.07
2018-12-08T03:53:39.575Z,2.92
2018-12-08T03:56:07.054Z,3.07
2018-12-08T03:58:34.643Z,2.93
2018-12-08T04:01:02.255Z,2.70
2018-12-08T04:03:29.739Z,3.33
2018-12-08T04:05:57.936Z,3.17
2018-12-08T04:08:25.450Z,3.37
2018-12-08T04:10:52.965Z,3.30
2018-12-08T04:13:20.546Z,3.50
2018-12-08T04:15:48.113Z,3.17
2018-12-08T04:18:15.619Z,3.53
2018-12-08T04:20:43.165Z,3.50
2018-12-08T04:23:10.664Z,2.40
2018-12-08T04:25:38.223Z,2.73
2018-12-08T04:28:05.833Z,3.33
2018-12-08T04:30:33.456Z,3.03
2018-12-08T04:33:00.934Z,2.77
2018-12-08T04:35:28.415Z,3.60
2018-12-08T04:37:55.943Z,3.17
2018-12-08T04:40:23.979Z,3.03
2018-12-08T04:42:51.591Z,3.03
2018-12-08T04:45:19.114Z,3.33
2018-12-08T04:47:46.627Z,3.23
2018-12-08T04:50:14.252Z,3.70
2018-12-08T04:52:42.671Z,3.00
2018-12-08T04:55:10.387Z,1.57
2018-12-08T04:57:37.876Z,3.43
2018-12-08T05:00:06.470Z,3.07
2018-12-08T05:02:33.948Z,3.20
2018-12-08T05:05:01.435Z,3.37
2018-12-08T05:07:28.969Z,3.20
2018-12-08T05:09:56.453Z,2.77
2018-12-08T05:12:24.027Z,3.17
2018-12-08T05:14:51.556Z,3.23
2018-12-08T05:17:19.030Z,2.40
2018-12-08T05:19:46.641Z,3.20
2018-12-08T05:22:14.146Z,3.67
2018-12-08T05:24:41.661Z,3.23
2018-12-08T05:27:09.167Z,3.40
2018-12-08T05:29:36.687Z,3.43
2018-12-08T05:32:04.626Z,2.90
2018-12-08T05:34:32.111Z,3.10
2018-12-08T05:36:59.615Z,3.20
2018-12-08T05:39:27.100Z,3.17
2018-12-08T05:41:54.592Z,3.13
2018-12-08T05:44:22.112Z,3.20
2018-12-08T05:46:49.595Z,3.43
2018-12-08T05:49:17.087Z,3.53
2018-12-08T05:51:44.601Z,3.00
2018-12-08T05:54:12.108Z,2.80
2018-12-08T05:56:39.595Z,2.90
2018-12-08T05:59:07.106Z,2.70
2018-12-08T06:01:34.703Z,2.73
2018-12-08T06:04:02.251Z,2.80
2018-12-08T06:06:29.811Z,2.47
2018-12-08T06:08:57.299Z,3.23
2018-12-08T06:11:24.783Z,2.50
2018-12-08T06:13:52.363Z,3.67
2018-12-08T06:16:19.917Z,2.50
2018-12-08T06:18:47.402Z,2.80
2018-12-08T06:21:14.954Z,3.07
2018-12-08T06:23:42.422Z,2.73
2018-12-08T06:26:09.973Z,2.57
2018-12-08T06:28:38.948Z,2.43
2018-12-08T06:31:06.902Z,3.60
2018-12-08T06:33:34.401Z,3.43
2018-12-08T06:36:01.945Z,2.80
2018-12-08T06:38:29.431Z,3.10
2018-12-08T06:40:56.919Z,3.60
2018-12-08T06:43:24.423Z,3.10
2018-12-08T06:48:25.727Z,3.13
2018-12-08T06:50:53.321Z,2.80
2018-12-08T06:53:20.831Z,3.20
2018-12-08T06:55:48.370Z,3.77
2018-12-08T06:58:15.852Z,3.37
2018-12-08T07:00:43.378Z,4.00
2018-12-08T07:03:10.890Z,3.60
2018-12-08T07:05:39.159Z,3.30
2018-12-08T07:08:06.709Z,3.57
2018-12-08T07:10:34.239Z,3.47
2018-12-08T07:13:01.731Z,3.93
2018-12-08T07:15:29.222Z,3.03
2018-12-08T07:17:56.867Z,3.37
2018-12-08T07:20:24.412Z,3.20
2018-12-08T07:22:51.946Z,3.80
2018-12-08T07:25:19.517Z,3.23
2018-12-08T07:27:47.123Z,2.90
2018-12-08T07:30:14.635Z,3.70
2018-12-08T07:32:42.220Z,3.30
2018-12-08T07:35:09.720Z,2.67
2018-12-08T07:37:37.547Z,2.97
2018-12-08T07:40:06.636Z,3.93
2018-12-08T07:42:34.122Z,3.30
2018-12-08T07:45:01.616Z,3.20
2018-12-08T07:47:29.213Z,3.53
2018-12-08T07:49:57.128Z,3.20
2018-12-08T07:52:24.642Z,3.80
2018-12-08T07:54:52.310Z,3.60
2018-12-08T07:57:20.612Z,3.57
2018-12-08T07:59:48.090Z,3.13
2018-12-08T08:02:15.621Z,3.60
2018-12-08T08:04:43.118Z,2.97
2018-12-08T08:07:10.605Z,3.17
2018-12-08T08:09:38.115Z,2.93
2018-12-08T08:12:05.595Z,3.90
2018-12-08T08:14:33.124Z,2.23
2018-12-08T08:17:00.619Z,2.13
2018-12-08T08:19:28.182Z,3.67
2018-12-08T08:21:56.012Z,3.40
2018-12-08T08:24:23.515Z,3.07
2018-12-08T08:26:51.758Z,3.80
2018-12-08T08:29:19.257Z,2.97
2018-12-08T08:31:46.863Z,4.20
2018-12-08T08:34:14.356Z,3.67
2018-12-08T08:36:41.866Z,3.43
2018-12-08T08:39:09.755Z,3.13
2018-12-08T08:41:37.239Z,3.33
2018-12-08T08:44:04.998Z,3.50
2018-12-08T08:46:32.735Z,3.77
2018-12-08T08:49:00.859Z,3.63
2018-12-08T08:51:28.340Z,4.30
2018-12-08T08:53:55.964Z,4.03
2018-12-08T08:56:23.561Z,3.87
2018-12-08T08:58:51.101Z,4.10
2018-12-08T09:01:18.616Z,3.83
2018-12-08T09:03:46.120Z,4.10
2018-12-08T09:06:13.703Z,4.87
2018-12-08T09:08:41.255Z,3.93
2018-12-08T09:11:08.739Z,3.00
2018-12-08T09:13:36.224Z,4.47
2018-12-08T09:16:03.828Z,4.07
2018-12-08T09:18:31.311Z,3.60
2018-12-08T09:20:58.919Z,3.20
2018-12-08T09:23:26.424Z,3.87
2018-12-08T09:25:53.950Z,4.00
2018-12-08T09:28:21.508Z,3.57
2018-12-08T09:30:49.025Z,2.80
2018-12-08T09:33:16.507Z,4.20
2018-12-08T09:35:44.072Z,4.30
2018-12-08T09:38:11.614Z,3.87
2018-12-08T09:40:39.123Z,4.50
2018-12-08T09:43:06.607Z,3.10
2018-12-08T09:45:41.605Z,3.13
2018-12-08T09:48:03.805Z,4.43
2018-12-08T09:50:31.376Z,4.47
2018-12-08T09:53:17.872Z,3.77
2018-12-08T09:55:45.427Z,4.10
2018-12-08T09:58:12.993Z,4.10
2018-12-08T10:00:40.555Z,4.93
2018-12-08T10:03:08.108Z,3.97
2018-12-08T10:05:35.596Z,3.77
2018-12-08T10:08:03.167Z,4.03
2018-12-08T10:10:30.680Z,4.20
2018-12-08T10:12:58.197Z,3.63
2018-12-08T10:15:25.727Z,3.13
2018-12-08T10:17:53.257Z,3.17
2018-12-08T10:20:20.743Z,3.60
2018-12-08T10:22:48.302Z,3.33
2018-12-08T10:25:15.789Z,3.77
2018-12-08T10:27:43.280Z,3.97
2018-12-08T10:30:11.111Z,3.97
2018-12-08T10:32:38.632Z,4.30
2018-12-08T10:35:10.254Z,3.07
2018-12-08T10:37:38.719Z,3.40
2018-12-08T10:40:08.231Z,3.47
2018-12-08T10:42:35.795Z,3.90
2018-12-08T10:45:03.732Z,4.27
2018-12-08T10:47:31.310Z,4.03
2018-12-08T10:49:58.792Z,4.60
2018-12-08T10:52:26.339Z,3.00
2018-12-08T10:54:53.853Z,4.07
2018-12-08T10:57:21.363Z,3.30
2018-12-08T10:59:48.868Z,3.33
2018-12-08T11:02:21.921Z,2.83
2018-12-08T11:04:49.547Z,3.83
2018-12-08T11:07:17.075Z,3.73
2018-12-08T11:09:44.579Z,4.20
2018-12-08T11:12:12.219Z,3.07
2018-12-08T11:14:39.996Z,3.90
2018-12-08T11:17:07.487Z,3.50
2018-12-08T11:19:35.084Z,3.40
2018-12-08T11:22:08.421Z,3.50
2018-12-08T11:24:35.912Z,3.27
2018-12-08T11:27:03.503Z,2.90
2018-12-08T11:29:31.061Z,2.00
2018-12-08T11:31:58.579Z,3.60
2018-12-08T11:34:45.649Z,2.53
2018-12-08T11:37:14.317Z,3.37
2018-12-08T11:39:41.880Z,3.23
2018-12-08T11:42:09.425Z,2.90
2018-12-08T11:44:37.313Z,3.03
2018-12-08T11:47:05.255Z,3.67
2018-12-08T11:49:32.784Z,2.97
2018-12-08T11:52:00.278Z,2.63
2018-12-08T11:54:27.868Z,3.20
2018-12-08T11:56:55.367Z,3.60
2018-12-08T11:59:22.857Z,3.60
2018-12-08T12:01:50.372Z,2.87
2018-12-08T12:04:17.863Z,3.07
2018-12-08T12:06:45.365Z,2.87
2018-12-08T12:09:12.963Z,3.57
2018-12-08T12:11:40.512Z,3.67
2018-12-08T12:14:08.163Z,3.00
2018-12-08T12:16:35.709Z,3.20
2018-12-08T12:19:03.234Z,3.10
2018-12-08T12:21:30.869Z,2.73
2018-12-08T12:23:58.379Z,3.37
2018-12-08T12:26:25.864Z,2.77
2018-12-08T12:28:53.951Z,2.60
2018-12-08T12:31:21.531Z,2.60
2018-12-08T12:33:49.075Z,2.63
2018-12-08T12:36:16.565Z,1.23
2018-12-08T12:38:44.082Z,2.70
2018-12-08T12:41:11.577Z,2.63
2018-12-08T12:43:39.190Z,2.97
2018-12-08T12:46:06.696Z,2.70
2018-12-08T12:48:34.184Z,1.93
2018-12-08T12:51:01.705Z,2.97
2018-12-08T12:53:29.217Z,2.40
2018-12-08T12:55:56.719Z,1.30
2018-12-08T12:58:24.239Z,3.10
2018-12-08T13:00:51.763Z,3.43
2018-12-08T13:03:19.262Z,3.10
2018-12-08T13:05:46.787Z,2.87
2018-12-08T13:08:14.315Z,2.27
2018-12-08T13:10:41.839Z,2.40
2018-12-08T13:13:09.386Z,2.70
2018-12-08T13:15:36.913Z,3.40
2018-12-08T13:18:04.402Z,2.10
2018-12-08T13:20:31.894Z,2.60
2018-12-08T13:22:59.438Z,2.73
2018-12-08T13:25:26.937Z,3.10
2018-12-08T13:27:54.438Z,3.07
2018-12-08T13:30:22.027Z,2.50
2018-12-08T13:32:49.518Z,2.80
2018-12-08T13:35:28.786Z,2.40
2018-12-08T13:37:56.271Z,2.43
2018-12-08T13:40:23.923Z,2.67
2018-12-08T13:42:51.505Z,3.10
2018-12-08T13:45:19.075Z,3.17
2018-12-08T13:47:46.611Z,3.20
2018-12-08T13:50:14.116Z,1.57
2018-12-08T13:52:41.591Z,2.80
2018-12-08T13:55:09.230Z,2.73
2018-12-08T13:57:36.787Z,3.20
2018-12-08T14:00:05.346Z,3.27
2018-12-08T14:02:32.843Z,3.30
2018-12-08T14:05:00.364Z,3.33
2018-12-08T14:07:27.867Z,3.73
2018-12-08T14:09:55.440Z,3.20
2018-12-08T14:12:23.109Z,3.60
2018-12-08T14:14:50.627Z,3.03
2018-12-08T14:17:18.111Z,3.10
2018-12-08T14:19:45.647Z,3.07
2018-12-08T14:22:13.165Z,3.03
2018-12-08T14:24:40.775Z,3.40
2018-12-08T14:27:08.340Z,4.20
2018-12-08T14:29:35.844Z,4.23
2018-12-08T14:32:03.490Z,3.63
2018-12-08T14:34:31.022Z,5.00
2018-12-08T14:36:58.598Z,4.00
2018-12-08T14:39:26.110Z,4.67
2018-12-08T14:41:53.719Z,4.20
2018-12-08T14:44:21.285Z,4.70
2018-12-08T14:46:48.786Z,4.17
2018-12-08T14:49:16.305Z,4.27
2018-12-08T14:51:43.835Z,3.80
2018-12-08T14:54:11.340Z,5.17
2018-12-08T14:56:38.925Z,5.53
2018-12-08T14:59:06.411Z,4.97
2018-12-08T15:01:33.975Z,4.90
2018-12-08T15:04:01.535Z,4.80
2018-12-08T15:06:29.739Z,4.10
2018-12-08T15:08:57.236Z,5.10
2018-12-08T15:11:24.767Z,5.73
2018-12-08T15:13:52.261Z,5.03
2018-12-08T15:16:19.748Z,4.87
2018-12-08T15:18:47.267Z,5.40
2018-12-08T15:21:14.775Z,4.87
2018-12-08T15:23:42.327Z,4.40
2018-12-08T15:26:09.844Z,4.87
2018-12-08T15:28:37.327Z,4.23
2018-12-08T15:31:04.829Z,4.53
2018-12-08T15:33:32.353Z,3.97
2018-12-08T15:35:59.914Z,4.43
2018-12-08T15:38:27.508Z,3.10
2018-12-08T15:40:55.032Z,5.40
2018-12-08T15:43:22.517Z,5.00
2018-12-08T15:45:50.106Z,4.70
2018-12-08T15:48:17.627Z,4.23
2018-12-08T15:50:45.144Z,5.43
2018-12-08T15:53:12.690Z,5.97
2018-12-08T15:55:40.194Z,5.60
2018-12-08T15:58:07.774Z,4.47
2018-12-08T16:00:35.372Z,4.67
2018-12-08T16:03:02.929Z,5.07
2018-12-08T16:05:30.520Z,5.23
2018-12-08T16:07:58.054Z,4.67
2018-12-08T16:10:25.613Z,5.70
2018-12-08T16:12:53.175Z,4.40
2018-12-08T16:15:20.694Z,4.93
2018-12-08T16:17:48.902Z,4.77
2018-12-08T16:20:16.453Z,4.63
2018-12-08T16:22:44.005Z,3.93
2018-12-08T16:25:11.560Z,5.60
2018-12-08T16:27:39.116Z,5.30
2018-12-08T16:30:07.527Z,5.17
2018-12-08T16:32:35.088Z,5.73
2018-12-08T16:35:02.575Z,5.10
2018-12-08T16:37:30.148Z,5.20
2018-12-08T16:39:57.722Z,4.87
2018-12-08T16:42:25.229Z,5.47
2018-12-08T16:44:52.766Z,3.73
2018-12-08T16:47:20.279Z,5.20
2018-12-08T16:49:47.844Z,4.90
2018-12-08T16:52:15.378Z,5.47
2018-12-08T16:54:43.102Z,4.77
2018-12-08T16:57:10.615Z,5.43
2018-12-08T16:59:38.230Z,5.37
2018-12-08T17:02:05.743Z,4.90
2018-12-08T17:04:33.259Z,4.83
2018-12-08T17:07:00.784Z,4.70
2018-12-08T17:09:28.271Z,5.27
2018-12-08T17:11:55.828Z,4.60
2018-12-08T17:14:23.391Z,4.27
2018-12-08T17:16:50.896Z,4.90
2018-12-08T17:19:19.270Z,4.70
2018-12-08T17:21:47.587Z,3.90
2018-12-08T17:24:15.119Z,3.70
2018-12-08T17:26:42.626Z,4.57
2018-12-08T17:29:10.164Z,4.10
2018-12-08T17:31:37.827Z,3.13
2018-12-08T17:34:05.328Z,2.93
2018-12-08T17:36:32.846Z,2.73
2018-12-08T17:39:00.574Z,2.70
2018-12-08T17:41:28.108Z,2.23
2018-12-08T17:43:55.719Z,2.10
2018-12-08T17:46:23.365Z,2.60
2018-12-08T17:48:50.895Z,2.20
2018-12-08T17:51:18.403Z,1.90
2018-12-08T17:53:45.893Z,1.63
2018-12-08T17:56:13.403Z,1.87
2018-12-08T17:58:40.928Z,2.10
2018-12-08T18:01:08.443Z,1.97
2018-12-08T18:03:35.946Z,2.43
2018-12-08T18:06:03.472Z,1.90
2018-12-08T18:08:30.960Z,1.40
2018-12-08T18:10:58.461Z,2.40
2018-12-08T18:13:26.034Z,3.77
2018-12-08T18:15:53.591Z,4.20
2018-12-08T18:18:21.096Z,4.03
2018-12-08T18:20:48.657Z,1.80
2018-12-08T18:23:16.171Z,1.50
2018-12-08T18:25:43.665Z,1.90
2018-12-08T18:28:11.220Z,1.60
2018-12-08T18:30:38.746Z,1.67
2018-12-08T18:33:06.476Z,1.27
2018-12-08T18:35:34.448Z,1.60
2018-12-08T18:38:01.962Z,1.60
2018-12-08T18:40:29.706Z,1.60
2018-12-08T18:42:57.311Z,1.80
2018-12-08T18:45:24.788Z,1.60
2018-12-08T18:47:52.309Z,1.87
2018-12-08T18:50:20.023Z,2.20
2018-12-08T18:52:47.592Z,1.83
2018-12-08T18:55:15.123Z,1.73
2018-12-08T18:57:42.626Z,1.83
2018-12-08T19:00:11.608Z,1.93
2018-12-08T19:02:39.089Z,1.90
2018-12-08T19:05:08.505Z,2.20
2018-12-08T19:07:36.423Z,3.17
2018-12-08T19:10:04.474Z,2.10
2018-12-08T19:12:31.998Z,2.13
2018-12-08T19:14:59.481Z,2.03
2018-12-08T19:17:27.013Z,2.20
2018-12-08T19:19:54.520Z,1.77
2018-12-08T19:22:22.034Z,2.10
2018-12-08T19:24:49.516Z,1.93
2018-12-08T19:27:17.032Z,2.17
2018-12-08T19:29:44.508Z,1.97
2018-12-08T19:32:12.034Z,1.63
2018-12-08T19:34:39.548Z,1.80
2018-12-08T19:37:07.055Z,1.83
2018-12-08T19:39:34.620Z,1.37
2018-12-08T19:42:02.123Z,1.47
2018-12-08T19:44:29.633Z,1.03
2018-12-08T19:46:57.128Z,1.23
2018-12-08T19:49:24.636Z,1.37
2018-12-08T19:51:52.201Z,2.13
2018-12-08T19:54:19.711Z,2.37
2018-12-08T19:56:47.194Z,0.97
2018-12-08T19:59:14.701Z,1.00
2018-12-08T20:01:43.040Z,1.40
2018-12-08T20:04:10.707Z,0.80
2018-12-08T20:06:38.311Z,1.03
2018-12-08T20:09:06.636Z,1.40
2018-12-08T20:11:34.507Z,0.83
2018-12-08T20:14:02.063Z,0.83
2018-12-08T20:16:29.611Z,0.77
2018-12-08T20:18:57.116Z,0.87
2018-12-08T20:21:24.651Z,0.97
2018-12-08T20:23:52.153Z,1.50
2018-12-08T20:26:19.759Z,1.50
2018-12-08T20:28:47.268Z,1.97
2018-12-08T20:31:14.851Z,1.60
2018-12-08T20:33:42.357Z,1.93
2018-12-08T20:36:09.963Z,1.87
2018-12-08T20:38:37.465Z,2.03
2018-12-08T20:41:05.023Z,1.73
2018-12-08T20:43:32.520Z,2.13
2018-12-08T20:46:00.317Z,2.07
2018-12-08T20:48:27.855Z,2.30
2018-12-08T20:50:55.601Z,2.53
2018-12-08T20:53:23.125Z,2.37
2018-12-08T20:55:50.618Z,2.00
2018-12-08T20:58:18.178Z,2.20
2018-12-08T21:00:45.697Z,2.50
2018-12-08T21:03:13.506Z,3.00
2018-12-08T21:05:41.615Z,2.80
2018-12-08T21:08:09.327Z,2.93
2018-12-08T21:10:37.670Z,2.70
2018-12-08T21:13:05.177Z,2.17
2018-12-08T21:15:32.722Z,1.90
2018-12-08T21:18:01.095Z,2.77
2018-12-08T21:20:29.217Z,2.97
2018-12-08T21:22:57.815Z,3.27
2018-12-08T21:25:25.330Z,2.90
2018-12-08T21:27:52.854Z,2.97
2018-12-08T21:30:20.471Z,3.10
2018-12-08T21:32:48.007Z,2.53
2018-12-08T21:35:15.491Z,3.33
2018-12-08T21:37:43.006Z,3.77
2018-12-08T21:40:15.220Z,3.20
2018-12-08T21:42:42.718Z,3.60
2018-12-08T21:45:10.233Z,2.30
2018-12-08T21:47:37.806Z,4.27
2018-12-08T21:50:05.628Z,3.77
2018-12-08T21:52:33.163Z,4.00
2018-12-08T21:55:00.659Z,2.07
2018-12-08T21:57:28.172Z,3.13
2018-12-08T21:59:55.764Z,3.30
2018-12-08T22:02:23.279Z,4.17
2018-12-08T22:04:50.772Z,3.83
2018-12-08T22:07:18.287Z,5.27
2018-12-08T22:09:45.795Z,3.93
2018-12-08T22:12:13.304Z,3.57
2018-12-08T22:14:47.458Z,4.17
2018-12-08T22:17:14.949Z,4.27
2018-12-08T22:19:42.449Z,4.93
2018-12-08T22:22:09.974Z,4.33
2018-12-08T22:24:37.468Z,4.63
2018-12-08T22:27:04.981Z,4.63
2018-12-08T22:29:32.506Z,4.80
2018-12-08T22:32:00.008Z,3.90
2018-12-08T22:34:27.611Z,4.67
2018-12-08T22:36:55.151Z,4.53
2018-12-08T22:39:22.635Z,3.67
2018-12-08T22:41:51.308Z,2.77
2018-12-08T22:44:18.826Z,4.13
2018-12-08T22:46:46.360Z,5.30
2018-12-08T22:49:13.853Z,4.97
2018-12-08T22:51:41.375Z,3.73
2018-12-08T22:54:08.915Z,4.10
2018-12-08T22:56:36.962Z,4.30
2018-12-08T22:59:04.527Z,4.13
2018-12-08T23:01:32.815Z,4.77
2018-12-08T23:04:00.367Z,4.37
2018-12-08T23:06:27.891Z,3.90
2018-12-08T23:08:55.379Z,3.80
2018-12-08T23:11:22.867Z,4.80
2018-12-08T23:13:50.370Z,4.50
2018-12-08T23:16:17.859Z,3.90
2018-12-08T23:18:45.343Z,5.07
2018-12-08T23:21:12.848Z,4.90
2018-12-08T23:23:40.422Z,3.47
2018-12-08T23:26:07.956Z,5.20
2018-12-08T23:28:35.483Z,4.77
2018-12-08T23:31:02.972Z,3.40
2018-12-08T23:33:30.505Z,5.00
2018-12-08T23:35:58.021Z,4.73
2018-12-08T23:38:26.099Z,5.63
2018-12-08T23:40:53.583Z,4.63
2018-12-08T23:43:21.115Z,4.50
2018-12-08T23:45:48.600Z,4.73
2018-12-08T23:48:16.095Z,5.50
2018-12-08T23:50:43.604Z,4.80
2018-12-08T23:53:11.103Z,4.63
2018-12-08T23:55:38.923Z,4.73
2018-12-08T23:58:06.416Z,2.97
